This is the latest recevied weather packets stored in our database for station/object OE3EMC-13. If no packets are shown the sender has not sent any weather packets the latest 10 day(s).
| Time | Temp. | Humidity | Pressure | Rain* | Wind** | Luminosity | Snow |
|---|---|---|---|---|---|---|---|
| 1777158789 | 10.56° C | 45% | 1100 hPa | 0 mm | - | - | - |
| 1777158195 | 10.56° C | 45% | 1100 hPa | 0 mm | - | - | - |
| 1777157595 | 10.56° C | 45% | 1100 hPa | 0 mm | - | - | - |
| 1777156994 | 10.56° C | 45% | 1100 hPa | 0 mm | - | - | - |
| 1777156394 | 10.56° C | 45% | 1100 hPa | 0 mm | - | - | - |
| 1777155795 | 10.56° C | 45% | 1100 hPa | 0 mm | - | - | - |
| 1777155194 | 10.56° C | 46% | 1100 hPa | 0 mm | - | - | - |
| 1777154593 | 10.56° C | 46% | 1100 hPa | 0 mm | - | - | - |
| 1777153993 | 10° C | 47% | 1100 hPa | 0 mm | - | - | - |
| 1777153393 | 10° C | 47% | 1100 hPa | 0 mm | - | - | - |
| 1777152794 | 10° C | 49% | 1100 hPa | 0 mm | - | - | - |
| 1777152193 | 10° C | 49% | 1100 hPa | 0 mm | - | - | - |
| 1777151593 | 9.44° C | 51% | 1100 hPa | 0 mm | - | - | - |
| 1777150993 | 9.44° C | 51% | 1100 hPa | 0 mm | - | - | - |
| 1777150392 | 8.33° C | 55% | 1100 hPa | 0 mm | - | - | - |
| 1777149792 | 8.33° C | 55% | 1100 hPa | 0 mm | - | - | - |
| 1777149192 | 8.33° C | 56% | 1100 hPa | 0 mm | - | - | - |
| 1777148592 | 8.33° C | 56% | 1100 hPa | 0 mm | - | - | - |
| 1777147992 | 7.78° C | 59% | 1100 hPa | 0 mm | - | - | - |
| 1777147392 | 7.78° C | 59% | 1100 hPa | 0 mm | - | - | - |
| 1777146793 | 7.78° C | 59% | 1100 hPa | 0 mm | - | - | - |
| 1777146192 | 7.78° C | 59% | 1100 hPa | 0 mm | - | - | - |
| 1777145591 | 8.33° C | 55% | 1100 hPa | 0 mm | - | - | - |
| 1777144992 | 8.33° C | 55% | 1100 hPa | 0 mm | - | - | - |
| 1777144393 | 10° C | 50% | 1100 hPa | 0 mm | - | - | - |
* Rain latest hour (hover to see other rain measurements)
** Current wind speed in m/s (hover to see current wind gust speed)